sensor_id;sensor_type;location;lat;lon;timestamp;temperature;humidity
1602;DHT22;794;48.592;9.634;2022-10-16T00:54:08;14.00;1.00
1602;DHT22;794;48.592;9.634;2022-10-16T00:56:50;13.50;1.00
1602;DHT22;794;48.592;9.634;2022-10-16T01:02:12;13.70;1.00
1602;DHT22;794;48.592;9.634;2022-10-16T01:04:54;13.70;1.00
1602;DHT22;794;48.592;9.634;2022-10-16T01:07:43;13.70;1.00
1602;DHT22;794;48.592;9.634;2022-10-16T01:57:41;13.40;1.00
1602;DHT22;794;48.592;9.634;2022-10-16T02:00:23;13.40;1.00
1602;DHT22;794;48.592;9.634;2022-10-16T02:03:05;13.30;1.00
1602;DHT22;794;48.592;9.634;2022-10-16T02:05:51;13.20;1.00
1602;DHT22;794;48.592;9.634;2022-10-16T02:23:21;13.60;1.00
1602;DHT22;794;48.592;9.634;2022-10-16T02:26:07;13.40;1.00
1602;DHT22;794;48.592;9.634;2022-10-16T02:28:56;13.80;1.00
1602;DHT22;794;48.592;9.634;2022-10-16T02:31:43;13.80;1.00
1602;DHT22;794;48.592;9.634;2022-10-16T02:37:09;13.90;1.00
1602;DHT22;794;48.592;9.634;2022-10-16T04:56:19;13.50;1.00
1602;DHT22;794;48.592;9.634;2022-10-16T05:22:09;13.60;1.00
1602;DHT22;794;48.592;9.634;2022-10-16T05:32:56;13.90;1.00
1602;DHT22;794;48.592;9.634;2022-10-16T05:38:31;13.60;1.00
1602;DHT22;794;48.592;9.634;2022-10-16T06:24:40;14.30;1.00
1602;DHT22;794;48.592;9.634;2022-10-16T08:02:12;17.20;1.00
1602;DHT22;794;48.592;9.634;2022-10-16T08:07:07;17.30;1.00
1602;DHT22;794;48.592;9.634;2022-10-16T08:19:25;18.30;1.00
1602;DHT22;794;48.592;9.634;2022-10-16T08:42:11;19.70;1.00
1602;DHT22;794;48.592;9.634;2022-10-16T08:45:07;19.70;1.00
1602;DHT22;794;48.592;9.634;2022-10-16T08:47:45;19.60;1.00
1602;DHT22;794;48.592;9.634;2022-10-16T08:50:21;19.60;1.00
1602;DHT22;794;48.592;9.634;2022-10-16T08:52:51;19.50;1.00
1602;DHT22;794;48.592;9.634;2022-10-16T08:55:31;19.70;1.00
1602;DHT22;794;48.592;9.634;2022-10-16T08:58:00;19.80;1.00
1602;DHT22;794;48.592;9.634;2022-10-16T09:00:27;19.90;1.00
1602;DHT22;794;48.592;9.634;2022-10-16T09:03:03;20.00;1.00
1602;DHT22;794;48.592;9.634;2022-10-16T09:08:54;20.10;1.00
1602;DHT22;794;48.592;9.634;2022-10-16T09:11:30;20.30;1.00
1602;DHT22;794;48.592;9.634;2022-10-16T09:14:07;20.40;1.00
1602;DHT22;794;48.592;9.634;2022-10-16T09:16:46;20.40;1.00
1602;DHT22;794;48.592;9.634;2022-10-16T09:19:20;20.30;1.00
1602;DHT22;794;48.592;9.634;2022-10-16T09:24:21;20.30;1.00
1602;DHT22;794;48.592;9.634;2022-10-16T09:29:19;20.40;1.00
1602;DHT22;794;48.592;9.634;2022-10-16T09:31:47;20.30;1.00
1602;DHT22;794;48.592;9.634;2022-10-16T09:34:20;20.40;1.00
1602;DHT22;794;48.592;9.634;2022-10-16T09:41:45;21.00;1.00
1602;DHT22;794;48.592;9.634;2022-10-16T09:44:19;21.00;1.00
1602;DHT22;794;48.592;9.634;2022-10-16T09:49:22;21.30;1.00
1602;DHT22;794;48.592;9.634;2022-10-16T09:54:20;21.50;1.00
1602;DHT22;794;48.592;9.634;2022-10-16T09:56:49;21.60;1.00
1602;DHT22;794;48.592;9.634;2022-10-16T09:59:19;21.60;1.00
1602;DHT22;794;48.592;9.634;2022-10-16T10:01:48;21.60;1.00
1602;DHT22;794;48.592;9.634;2022-10-16T10:06:45;21.80;1.00
1602;DHT22;794;48.592;9.634;2022-10-16T10:09:20;21.90;1.00
1602;DHT22;794;48.592;9.634;2022-10-16T10:11:54;21.80;1.00
1602;DHT22;794;48.592;9.634;2022-10-16T10:14:26;21.80;1.00
1602;DHT22;794;48.592;9.634;2022-10-16T10:17:16;21.80;1.00
1602;DHT22;794;48.592;9.634;2022-10-16T10:19:49;21.60;1.00
1602;DHT22;794;48.592;9.634;2022-10-16T10:22:18;21.50;1.00
1602;DHT22;794;48.592;9.634;2022-10-16T10:27:43;21.50;1.00
1602;DHT22;794;48.592;9.634;2022-10-16T10:30:18;21.50;1.00
1602;DHT22;794;48.592;9.634;2022-10-16T10:32:56;21.70;1.00
1602;DHT22;794;48.592;9.634;2022-10-16T10:35:33;21.70;1.00
1602;DHT22;794;48.592;9.634;2022-10-16T10:38:13;22.00;1.00
1602;DHT22;794;48.592;9.634;2022-10-16T10:40:49;22.10;1.00
1602;DHT22;794;48.592;9.634;2022-10-16T10:43:29;22.00;1.00
1602;DHT22;794;48.592;9.634;2022-10-16T10:46:02;22.20;1.00
1602;DHT22;794;48.592;9.634;2022-10-16T10:48:47;21.90;1.00
1602;DHT22;794;48.592;9.634;2022-10-16T10:51:21;21.70;1.00
1602;DHT22;794;48.592;9.634;2022-10-16T10:53:58;21.60;1.00
1602;DHT22;794;48.592;9.634;2022-10-16T10:56:45;21.60;1.00
1602;DHT22;794;48.592;9.634;2022-10-16T10:59:45;21.70;1.00
1602;DHT22;794;48.592;9.634;2022-10-16T11:02:22;21.90;1.00
1602;DHT22;794;48.592;9.634;2022-10-16T11:05:05;21.90;1.00
1602;DHT22;794;48.592;9.634;2022-10-16T11:07:39;21.80;1.00
1602;DHT22;794;48.592;9.634;2022-10-16T11:10:12;21.80;1.00
1602;DHT22;794;48.592;9.634;2022-10-16T11:12:44;21.80;1.00
1602;DHT22;794;48.592;9.634;2022-10-16T11:15:16;21.80;1.00
1602;DHT22;794;48.592;9.634;2022-10-16T11:17:49;21.90;1.00
1602;DHT22;794;48.592;9.634;2022-10-16T11:20:20;22.00;1.00
1602;DHT22;794;48.592;9.634;2022-10-16T11:22:51;21.90;1.00
1602;DHT22;794;48.592;9.634;2022-10-16T11:25:22;21.90;1.00
1602;DHT22;794;48.592;9.634;2022-10-16T11:27:54;24.50;1.00
1602;DHT22;794;48.592;9.634;2022-10-16T11:30:25;21.30;1.00
1602;DHT22;794;48.592;9.634;2022-10-16T11:33:00;22.00;1.00
1602;DHT22;794;48.592;9.634;2022-10-16T11:35:39;22.20;1.00
1602;DHT22;794;48.592;9.634;2022-10-16T11:38:11;22.40;1.00
1602;DHT22;794;48.592;9.634;2022-10-16T11:40:41;22.60;1.00
1602;DHT22;794;48.592;9.634;2022-10-16T11:43:14;22.60;1.00
1602;DHT22;794;48.592;9.634;2022-10-16T11:45:45;22.80;1.00
1602;DHT22;794;48.592;9.634;2022-10-16T11:48:20;23.10;1.00
1602;DHT22;794;48.592;9.634;2022-10-16T11:50:53;23.40;1.00
1602;DHT22;794;48.592;9.634;2022-10-16T11:53:29;23.40;1.00
1602;DHT22;794;48.592;9.634;2022-10-16T11:56:00;23.40;1.00
1602;DHT22;794;48.592;9.634;2022-10-16T11:58:31;27.60;1.00
1602;DHT22;794;48.592;9.634;2022-10-16T12:01:15;23.00;1.00
1602;DHT22;794;48.592;9.634;2022-10-16T12:03:56;22.80;1.00
1602;DHT22;794;48.592;9.634;2022-10-16T12:06:31;22.70;1.00
1602;DHT22;794;48.592;9.634;2022-10-16T12:11:35;22.30;1.00
1602;DHT22;794;48.592;9.634;2022-10-16T12:14:32;22.10;1.00
1602;DHT22;794;48.592;9.634;2022-10-16T12:17:03;22.10;1.00
1602;DHT22;794;48.592;9.634;2022-10-16T12:19:31;21.90;1.00
1602;DHT22;794;48.592;9.634;2022-10-16T12:22:00;21.80;1.00
1602;DHT22;794;48.592;9.634;2022-10-16T12:24:34;21.80;1.00
1602;DHT22;794;48.592;9.634;2022-10-16T12:27:02;21.70;1.00
1602;DHT22;794;48.592;9.634;2022-10-16T12:29:35;21.70;1.00
1602;DHT22;794;48.592;9.634;2022-10-16T12:32:30;21.70;1.00
1602;DHT22;794;48.592;9.634;2022-10-16T12:34:59;23.20;1.00
1602;DHT22;794;48.592;9.634;2022-10-16T12:37:27;21.90;1.00
1602;DHT22;794;48.592;9.634;2022-10-16T12:39:57;21.90;1.00
1602;DHT22;794;48.592;9.634;2022-10-16T12:42:33;22.00;1.00
1602;DHT22;794;48.592;9.634;2022-10-16T12:45:01;22.10;1.00
1602;DHT22;794;48.592;9.634;2022-10-16T12:47:46;24.90;1.00
1602;DHT22;794;48.592;9.634;2022-10-16T12:50:25;22.10;1.00
1602;DHT22;794;48.592;9.634;2022-10-16T12:55:22;22.10;1.00
1602;DHT22;794;48.592;9.634;2022-10-16T12:58:11;22.00;1.00
1602;DHT22;794;48.592;9.634;2022-10-16T13:00:53;21.90;1.00
1602;DHT22;794;48.592;9.634;2022-10-16T13:03:43;21.90;1.00
1602;DHT22;794;48.592;9.634;2022-10-16T13:06:21;22.00;1.00
1602;DHT22;794;48.592;9.634;2022-10-16T13:09:07;22.00;1.00
1602;DHT22;794;48.592;9.634;2022-10-16T13:11:47;22.00;1.00
1602;DHT22;794;48.592;9.634;2022-10-16T13:14:54;21.90;1.00
1602;DHT22;794;48.592;9.634;2022-10-16T13:17:31;21.90;1.00
1602;DHT22;794;48.592;9.634;2022-10-16T13:20:19;21.90;1.00
1602;DHT22;794;48.592;9.634;2022-10-16T13:22:56;22.00;1.00
1602;DHT22;794;48.592;9.634;2022-10-16T13:25:32;22.00;1.00
1602;DHT22;794;48.592;9.634;2022-10-16T13:28:02;21.90;1.00
1602;DHT22;794;48.592;9.634;2022-10-16T13:30:31;22.00;1.00
1602;DHT22;794;48.592;9.634;2022-10-16T13:33:01;21.90;1.00
1602;DHT22;794;48.592;9.634;2022-10-16T13:35:32;21.90;1.00
1602;DHT22;794;48.592;9.634;2022-10-16T13:38:12;21.80;1.00
1602;DHT22;794;48.592;9.634;2022-10-16T13:40:50;21.80;1.00
1602;DHT22;794;48.592;9.634;2022-10-16T15:10:55;20.20;1.00
1602;DHT22;794;48.592;9.634;2022-10-16T15:16:20;20.10;1.00
1602;DHT22;794;48.592;9.634;2022-10-16T16:46:33;19.90;1.00
1602;DHT22;794;48.592;9.634;2022-10-16T21:14:26;12.60;1.00
1602;DHT22;794;48.592;9.634;2022-10-16T21:27:57;12.50;1.00
1602;DHT22;794;48.592;9.634;2022-10-16T22:18:52;11.90;1.00
1602;DHT22;794;48.592;9.634;2022-10-16T22:32:22;11.80;1.00
1602;DHT22;794;48.592;9.634;2022-10-16T23:32:22;11.50;1.00
1602;DHT22;794;48.592;9.634;2022-10-16T23:40:25;11.30;1.00
